メインページ
METAR-TAF:

METAR-TAF

空港 :

アレハンドロ・ベラスコ・アステテ国際空港

クスコ, ペルー

緯度: 13-33S, 経度: 071-59W, 海抜: 3248m

現時点の気象観測

当レポートは1時間8分前の03:00(UTC)に作成
無風
気温 11°C
湿度 82%
気圧 1036 hPa
視程10km以上
高度4000ftの雲はほとんどない, 塔状積雲.
高度5000ftの雲は散在している
高度10000ftの千切れ雲あり

METAR: SPZO 250300Z 00000KT 9999 FEW040TCU SCT050 BKN100 11/08 Q1036 RMK BIRD HAZARD RWY 28 PP004

時間: 23:08 (04:08 UTC)

予報

当レポートは5時間8分前の23:00(UTC)に作成
予報は25日の 00時(UTC)から 25日の 24時(UTC)まで有効
北東の風 3kt
視程10km以上
高度4600ftの雲は散在している
高度10000ftの千切れ雲あり
小雨
25日の 03時(UTC)から 25日の 04時(UTC)まで徐々に
25日の 06時(UTC)から 25日の 08時(UTC)まで徐々に
高度2000ftの雲はほとんどない
高度3600ftの雲は散在している
高度7000ftの千切れ雲あり
霧雨
25日の 12時(UTC)から 25日の 14時(UTC)まで徐々に
高度4300ftの雲は散在している
高度8000ftの千切れ雲あり
25日の 18時(UTC)から 25日の 22時(UTC)まで一時的に
の風 12kt
高度4000ftの雲はほとんどない, 塔状積雲.
高度4600ftの雲は散在している
高度10000ftの千切れ雲あり

TAF: SPZO 242300Z 2500/2524 04003KT 9999 -RA SCT046 BKN100 TX20/2519Z TN09/2511Z BECMG 2503/2504 NSW BECMG 2506/2508 DZ FEW020 SCT036 BKN070 BECMG 2512/2514 SCT043 BKN080 TEMPO 2518/2522 36012KT FEW040TCU SCT046 BKN100

4,000以上の空港の気象観測と天気予報(METAR報とTAF報)

利用可能な観測所は地図上に黄色い丸と赤い丸で示す。

丸の上にカーソルを重ねると観測所名を参照できる。

次にクリックすると気象観測と天気予報を参照できる。

マップの切り替え:黒色「×」印の緑ボタンをクリックして拡大、「-」印の緑ボタンをクリックして縮小、緑色の三角印をクリックして隣りの地図に切り替え


METAR-TAF: